Capitan FAP Carlos Martinez De Pinillos International Airport
SPRU : now visible

Airfield :











YOU CAN JOIN US ON...

 
LOGIN :

Register | Disclaimer

   EN    FR    IT 

 









Legend :    VFR   Marginal VFR   IFR   Intensive IFR   Very Intensive IFR
Visi :
Ceiling :
>= 8 km
>= 3000ft
5 to 8 km
1000 to 3000 ft
1500m to 5 km
500 to 1000 ft
800 to 1500m
200 to 500 ft
< 800m
< 200 ft
Symbols :   Thunderstorms  Fog  Heavy snow  Heavy precipitations  Wind > 20 kt






- Airport Elevation : 106 ft
- IATA code : TRU


SPRU - Capitan FAP Carlos Martinez De Pinillos International

CURRENT METAR :
  • 210700Z 12004KT 9999 BKN050 OVC130 22/20 Q1013 RMK PP000

EXPIRED METARs :
  • 210600Z 13005KT 9999 BKN050 OVC130 23/20 Q1013 RMK PP000
  • 210500Z 13004KT 100V160 9999 BKN130 23/20 Q1013 RMK PP000

TAF SPRU
Valid from the 21 at 06:00 until the 22 at 06:00 UTC


210500Z 2106/2206 13005KT 6000 SCT130 TX25/2119Z TN20/2111Z
BECMG 2109/2111 BKN010
TEMPO 2111/2113 4500 BR OVC004
FM211700 17010KT 8000 SCT010
FM212300 15005KT 7000 BKN060



MET'MAP, your aeronautical weather chart ! - Copyright ORBIFLY December 2007 - Disclaimer

ORBIFLY MET'MAP TEAM :

Programming & Development : Alexandra Zaïnal
Concept & original design : Baudouin d'Aumeries
Assistance for programming : Marc-Olivier Méhu
Technical & hardware support : Manuel Goepfert

Contact : metmap@orbifly.com




SOURCES & CREDITS :

   NOAA       Earth
Advisory